createdAt,value
2023-02-15T00:00:04.145Z,13.10
2023-02-15T00:02:30.819Z,12.87
2023-02-15T00:04:57.657Z,13.80
2023-02-15T00:07:24.394Z,13.70
2023-02-15T00:09:51.128Z,13.80
2023-02-15T00:12:18.064Z,14.20
2023-02-15T00:14:45.162Z,15.47
2023-02-15T00:17:11.999Z,14.80
2023-02-15T00:19:38.880Z,15.20
2023-02-15T00:22:05.651Z,15.20
2023-02-15T00:24:32.440Z,15.20
2023-02-15T00:26:59.544Z,15.23
2023-02-15T00:29:26.348Z,14.77
2023-02-15T00:31:53.573Z,15.47
2023-02-15T00:34:25.752Z,14.83
2023-02-15T00:36:52.720Z,13.73
2023-02-15T00:39:20.071Z,13.67
2023-02-15T00:41:47.582Z,14.03
2023-02-15T00:44:15.010Z,14.03
2023-02-15T00:46:41.780Z,13.40
2023-02-15T00:49:08.576Z,14.90
2023-02-15T00:51:35.318Z,14.47
2023-02-15T00:54:02.073Z,15.87
2023-02-15T00:56:29.428Z,14.03
2023-02-15T00:58:56.715Z,14.53
2023-02-15T01:01:24.421Z,15.03
2023-02-15T01:03:51.307Z,14.90
2023-02-15T01:06:19.111Z,15.00
2023-02-15T01:08:46.956Z,14.53
2023-02-15T01:11:25.326Z,14.27
2023-02-15T01:13:54.697Z,14.70
2023-02-15T01:16:21.860Z,14.70
2023-02-15T01:18:49.348Z,15.00
2023-02-15T01:21:18.653Z,14.80
2023-02-15T01:23:45.529Z,14.03
2023-02-15T01:26:12.442Z,14.37
2023-02-15T01:28:39.207Z,13.60
2023-02-15T01:31:08.088Z,13.10
2023-02-15T01:33:36.124Z,13.80
2023-02-15T01:36:03.688Z,12.87
2023-02-15T01:38:30.659Z,13.27
2023-02-15T01:41:16.095Z,13.27
2023-02-15T01:43:45.544Z,12.90
2023-02-15T01:46:13.987Z,12.23
2023-02-15T01:48:49.779Z,12.60
2023-02-15T01:51:20.957Z,13.77
2023-02-15T01:53:59.908Z,12.40
2023-02-15T01:56:31.436Z,13.10
2023-02-15T01:59:02.898Z,13.73
2023-02-15T02:01:29.991Z,12.10
2023-02-15T02:04:12.014Z,14.07
2023-02-15T02:06:39.980Z,13.03
2023-02-15T02:09:07.087Z,13.00
2023-02-15T02:11:35.317Z,13.00
2023-02-15T02:14:02.083Z,12.67
2023-02-15T02:16:37.635Z,12.87
2023-02-15T02:19:32.094Z,13.47
2023-02-15T02:22:17.236Z,12.50
2023-02-15T02:25:02.760Z,13.03
2023-02-15T02:27:35.487Z,13.23
2023-02-15T02:30:41.028Z,12.97
2023-02-15T02:33:21.324Z,12.77
2023-02-15T02:36:06.110Z,13.07
2023-02-15T02:39:00.137Z,12.87
2023-02-15T02:41:27.218Z,13.53
2023-02-15T02:44:07.492Z,11.67
2023-02-15T02:46:45.248Z,12.80
2023-02-15T02:49:12.864Z,13.67
2023-02-15T02:51:39.561Z,13.80
2023-02-15T02:54:08.140Z,13.20
2023-02-15T02:56:41.831Z,14.40
2023-02-15T02:59:25.262Z,13.17
2023-02-15T03:02:13.782Z,13.13
2023-02-15T03:04:45.445Z,13.60
2023-02-15T03:07:18.810Z,14.50
2023-02-15T03:09:49.852Z,14.67
2023-02-15T03:12:25.282Z,12.97
2023-02-15T03:14:56.025Z,13.63
2023-02-15T03:17:26.834Z,13.40
2023-02-15T03:19:56.661Z,13.70
2023-02-15T03:22:29.292Z,12.77
2023-02-15T03:25:10.454Z,12.87
2023-02-15T03:27:51.511Z,12.80
2023-02-15T03:30:21.849Z,12.30
2023-02-15T03:32:50.952Z,13.30
2023-02-15T03:35:18.772Z,12.23
2023-02-15T03:37:52.751Z,12.60
2023-02-15T03:40:41.666Z,12.77
2023-02-15T03:43:18.116Z,13.07
2023-02-15T03:45:56.119Z,13.23
2023-02-15T03:48:27.984Z,14.33
2023-02-15T03:51:22.197Z,14.13
2023-02-15T03:53:50.000Z,14.20
2023-02-15T03:56:16.698Z,12.40
2023-02-15T03:59:02.102Z,13.40
2023-02-15T04:01:54.737Z,13.60
2023-02-15T04:04:25.626Z,13.90
2023-02-15T04:06:52.525Z,14.13
2023-02-15T04:09:38.210Z,13.90
2023-02-15T04:12:05.387Z,13.40
2023-02-15T04:14:51.375Z,13.57
2023-02-15T04:17:18.059Z,12.93
2023-02-15T04:20:03.151Z,13.43
2023-02-15T04:22:48.641Z,14.10
2023-02-15T04:25:15.514Z,14.20
2023-02-15T04:27:48.329Z,14.87
2023-02-15T04:30:17.106Z,13.27
2023-02-15T04:32:43.906Z,13.57
2023-02-15T04:35:10.752Z,13.67
2023-02-15T04:37:37.935Z,13.97
2023-02-15T04:40:06.356Z,14.50
2023-02-15T04:42:33.757Z,14.00
2023-02-15T04:45:00.516Z,15.33
2023-02-15T04:47:27.635Z,15.27
2023-02-15T04:49:55.190Z,16.07
2023-02-15T04:52:23.377Z,14.13
2023-02-15T04:54:50.516Z,14.63
2023-02-15T04:57:17.679Z,13.93
2023-02-15T04:59:44.826Z,14.90
2023-02-15T05:02:11.550Z,15.43
2023-02-15T05:04:38.753Z,15.20
2023-02-15T05:07:05.505Z,16.00
2023-02-15T05:09:32.610Z,14.87
2023-02-15T05:11:59.324Z,14.67
2023-02-15T05:14:26.458Z,14.17
2023-02-15T05:16:54.829Z,14.77
2023-02-15T05:19:24.146Z,14.23
2023-02-15T05:21:51.271Z,16.83
2023-02-15T05:24:36.454Z,15.93
2023-02-15T05:27:22.457Z,13.83
2023-02-15T05:29:49.319Z,15.33
2023-02-15T05:32:16.621Z,14.73
2023-02-15T05:34:43.509Z,15.00
2023-02-15T05:37:10.709Z,14.23
2023-02-15T05:39:37.400Z,15.57
2023-02-15T05:42:04.339Z,16.13
2023-02-15T05:44:31.064Z,15.57
2023-02-15T05:46:57.790Z,15.80
2023-02-15T05:49:25.015Z,15.90
2023-02-15T05:51:51.779Z,16.87
2023-02-15T05:54:18.888Z,15.50
2023-02-15T05:56:45.999Z,16.60
2023-02-15T05:59:13.698Z,15.40
2023-02-15T06:01:40.835Z,17.70
2023-02-15T06:04:07.534Z,16.53
2023-02-15T06:06:35.478Z,17.00
2023-02-15T06:09:02.315Z,17.20
2023-02-15T06:11:29.115Z,16.20
2023-02-15T06:13:55.934Z,15.77
2023-02-15T06:16:23.278Z,16.60
2023-02-15T06:18:52.393Z,16.47
2023-02-15T06:21:20.391Z,16.30
2023-02-15T06:23:47.067Z,16.87
2023-02-15T06:26:13.790Z,16.10
2023-02-15T06:28:42.069Z,16.27
2023-02-15T06:31:09.352Z,16.80
2023-02-15T06:33:36.433Z,16.57
2023-02-15T06:36:04.770Z,14.40
2023-02-15T06:38:32.230Z,16.63
2023-02-15T06:40:59.152Z,16.90
2023-02-15T06:43:26.319Z,17.23
2023-02-15T06:45:53.512Z,16.07
2023-02-15T06:48:20.692Z,16.53
2023-02-15T06:50:47.798Z,17.00
2023-02-15T06:53:14.492Z,18.03
2023-02-15T06:55:41.229Z,19.37
2023-02-15T06:58:08.067Z,19.83
2023-02-15T07:00:35.167Z,17.90
2023-02-15T07:03:03.068Z,18.40
2023-02-15T07:05:31.920Z,16.50
2023-02-15T07:08:00.420Z,15.73
2023-02-15T07:10:27.891Z,15.13
2023-02-15T07:12:54.840Z,14.17
2023-02-15T07:15:23.131Z,15.30
2023-02-15T07:17:50.198Z,16.53
2023-02-15T07:20:20.315Z,17.27
2023-02-15T07:22:47.439Z,16.87
2023-02-15T07:25:14.826Z,16.60
2023-02-15T07:27:42.274Z,17.33
2023-02-15T07:30:14.404Z,16.13
2023-02-15T07:33:04.212Z,15.23
2023-02-15T07:35:31.724Z,14.10
2023-02-15T07:37:58.436Z,14.23
2023-02-15T07:40:25.367Z,15.17
2023-02-15T07:42:54.171Z,14.67
2023-02-15T07:45:21.751Z,14.70
2023-02-15T07:47:48.565Z,14.30
2023-02-15T07:50:15.433Z,16.07
2023-02-15T07:52:42.246Z,13.83
2023-02-15T07:55:09.863Z,12.90
2023-02-15T07:57:36.729Z,14.43
2023-02-15T08:00:04.715Z,16.60
2023-02-15T08:02:31.571Z,15.60
2023-02-15T08:04:58.322Z,16.20
2023-02-15T08:07:25.077Z,16.63
2023-02-15T08:09:51.781Z,15.50
2023-02-15T08:12:18.861Z,17.03
2023-02-15T08:14:45.609Z,17.20
2023-02-15T08:17:12.405Z,17.13
2023-02-15T08:19:39.125Z,16.10
2023-02-15T08:22:07.947Z,15.80
2023-02-15T08:24:40.299Z,17.00
2023-02-15T08:27:08.605Z,15.73
2023-02-15T08:29:37.557Z,13.80
2023-02-15T08:32:07.836Z,15.20
2023-02-15T08:34:40.084Z,16.63
2023-02-15T08:37:06.919Z,17.70
2023-02-15T08:39:34.206Z,17.27
2023-02-15T08:42:00.953Z,17.77
2023-02-15T08:44:27.736Z,17.20
2023-02-15T08:46:55.667Z,17.70
2023-02-15T08:49:23.180Z,17.57
2023-02-15T08:51:51.020Z,18.37
2023-02-15T08:54:20.487Z,17.50
2023-02-15T08:56:48.116Z,17.73
2023-02-15T08:59:20.371Z,17.90
2023-02-15T09:01:48.978Z,18.33
2023-02-15T09:04:16.820Z,18.97
2023-02-15T09:06:48.119Z,18.70
2023-02-15T09:09:16.050Z,19.23
2023-02-15T09:11:44.867Z,19.57
2023-02-15T09:14:18.055Z,19.20
2023-02-15T09:16:49.508Z,22.33
2023-02-15T09:19:21.034Z,20.60
2023-02-15T09:21:48.060Z,20.70
2023-02-15T09:24:16.748Z,24.07
2023-02-15T09:26:45.972Z,26.60
2023-02-15T09:29:13.895Z,24.63
2023-02-15T09:31:45.094Z,25.00
2023-02-15T09:34:14.205Z,24.53
2023-02-15T09:36:42.247Z,25.77
2023-02-15T09:39:16.080Z,23.07
2023-02-15T09:41:48.361Z,21.40
2023-02-15T09:44:39.869Z,21.30
2023-02-15T09:47:25.218Z,21.90
2023-02-15T09:50:41.019Z,21.40
2023-02-15T09:53:53.303Z,22.17
2023-02-15T09:56:40.556Z,20.83
2023-02-15T09:59:32.008Z,22.37
2023-02-15T10:02:27.998Z,21.60
2023-02-15T10:05:06.840Z,25.23
2023-02-15T10:07:56.481Z,23.63
2023-02-15T10:10:36.739Z,22.93
2023-02-15T10:13:31.924Z,24.03
2023-02-15T10:16:12.065Z,24.10
2023-02-15T10:18:53.889Z,21.70
2023-02-15T10:21:48.207Z,21.33
2023-02-15T10:24:25.609Z,23.03
2023-02-15T10:26:57.648Z,21.97
2023-02-15T10:29:28.253Z,24.77
2023-02-15T10:32:24.504Z,22.37
2023-02-15T10:35:02.593Z,25.50
2023-02-15T10:37:47.969Z,24.00
2023-02-15T10:40:52.614Z,24.70
2023-02-15T10:43:37.815Z,24.93
2023-02-15T10:46:34.584Z,24.13
2023-02-15T10:49:16.191Z,26.57
2023-02-15T10:51:42.873Z,24.67
2023-02-15T10:54:22.415Z,25.17
2023-02-15T10:57:03.750Z,27.43
2023-02-15T11:00:00.585Z,24.37
2023-02-15T11:02:43.463Z,24.20
2023-02-15T11:05:34.126Z,23.90
2023-02-15T11:08:04.918Z,23.47
2023-02-15T11:10:38.690Z,22.33
2023-02-15T11:13:29.352Z,24.50
2023-02-15T11:16:07.427Z,21.70
2023-02-15T11:18:40.098Z,22.93
2023-02-15T11:21:24.258Z,23.90
2023-02-15T11:23:52.310Z,24.03
2023-02-15T11:26:31.234Z,22.10
2023-02-15T11:29:30.415Z,22.20
2023-02-15T11:32:23.227Z,22.50
2023-02-15T11:35:01.724Z,23.33
2023-02-15T11:37:58.537Z,21.10
2023-02-15T11:40:29.403Z,23.70
2023-02-15T11:43:05.215Z,20.60
2023-02-15T11:45:36.160Z,22.47
2023-02-15T11:48:11.576Z,20.90
2023-02-15T11:50:38.605Z,17.00
2023-02-15T11:53:28.534Z,13.20
2023-02-15T11:55:56.325Z,13.30
2023-02-15T11:59:01.547Z,13.00
2023-02-15T12:02:00.951Z,13.80
2023-02-15T12:04:35.489Z,14.10
2023-02-15T12:07:24.062Z,13.87
2023-02-15T12:10:14.850Z,16.00
2023-02-15T12:12:41.823Z,15.10
2023-02-15T12:15:10.547Z,14.27
2023-02-15T12:17:51.313Z,14.00
2023-02-15T12:20:17.975Z,13.27
2023-02-15T12:23:02.973Z,14.20
2023-02-15T12:25:54.474Z,13.07
2023-02-15T12:28:34.914Z,14.10
2023-02-15T12:31:04.585Z,12.47
2023-02-15T12:33:46.472Z,12.87
2023-02-15T12:36:25.019Z,13.90
2023-02-15T12:39:20.638Z,13.40
2023-02-15T12:41:56.233Z,14.10
2023-02-15T12:44:27.002Z,14.30
2023-02-15T12:47:02.156Z,13.27
2023-02-15T12:49:38.682Z,13.23
2023-02-15T12:52:23.968Z,14.27
2023-02-15T12:54:51.923Z,14.40
2023-02-15T12:57:23.222Z,13.33
2023-02-15T12:59:56.480Z,14.20
2023-02-15T13:02:57.867Z,14.00
2023-02-15T13:05:38.123Z,14.73
2023-02-15T13:08:18.160Z,14.97
2023-02-15T13:11:05.187Z,15.60
2023-02-15T13:13:37.362Z,15.33
2023-02-15T13:16:13.277Z,14.63
2023-02-15T13:18:46.701Z,14.00
2023-02-15T13:21:17.673Z,14.13
2023-02-15T13:23:50.881Z,13.40
2023-02-15T13:26:22.175Z,13.83
2023-02-15T13:28:54.268Z,14.40
2023-02-15T13:31:25.745Z,13.87
2023-02-15T13:33:54.373Z,15.17
2023-02-15T13:36:35.792Z,13.37
2023-02-15T13:39:21.306Z,15.43
2023-02-15T13:41:54.360Z,14.97
2023-02-15T13:44:47.214Z,15.20
2023-02-15T13:47:37.834Z,14.10
2023-02-15T13:50:31.348Z,14.40
2023-02-15T13:53:20.660Z,13.50
2023-02-15T13:55:53.017Z,14.23
2023-02-15T13:58:28.908Z,14.70
2023-02-15T14:01:09.428Z,14.73
2023-02-15T14:03:45.105Z,19.87
2023-02-15T14:06:20.574Z,14.90
2023-02-15T14:09:12.145Z,16.27
2023-02-15T14:12:00.414Z,16.20
2023-02-15T14:15:09.312Z,15.23
2023-02-15T14:17:47.641Z,14.83
2023-02-15T14:20:33.080Z,15.60
2023-02-15T14:23:16.413Z,15.70
2023-02-15T14:26:01.587Z,16.40
2023-02-15T14:29:25.582Z,15.23
2023-02-15T14:31:58.483Z,14.17
2023-02-15T14:34:45.357Z,13.40
2023-02-15T14:37:14.772Z,15.80
2023-02-15T14:40:16.474Z,15.30
2023-02-15T14:42:48.835Z,14.53
2023-02-15T14:45:32.631Z,14.50
2023-02-15T14:48:16.412Z,15.00
2023-02-15T14:50:45.890Z,17.60
2023-02-15T14:53:30.848Z,16.63
2023-02-15T14:56:24.519Z,15.90
2023-02-15T14:58:51.149Z,15.23
2023-02-15T15:01:30.587Z,14.50
2023-02-15T15:04:04.062Z,15.80
2023-02-15T15:06:36.681Z,15.63
2023-02-15T15:09:22.239Z,15.47
2023-02-15T15:11:51.076Z,15.10
2023-02-15T15:14:33.129Z,15.90
2023-02-15T15:17:02.301Z,14.80
2023-02-15T15:19:52.240Z,15.30
2023-02-15T15:22:23.434Z,16.30
2023-02-15T15:24:53.352Z,16.67
2023-02-15T15:27:42.753Z,21.60
2023-02-15T15:30:15.366Z,24.03
2023-02-15T15:33:00.284Z,23.80
2023-02-15T15:35:44.997Z,20.17
2023-02-15T15:38:55.478Z,17.80
2023-02-15T15:41:43.887Z,17.73
2023-02-15T15:44:32.258Z,17.30
2023-02-15T15:47:20.736Z,15.83
2023-02-15T15:49:47.677Z,16.10
2023-02-15T15:52:19.498Z,21.27
2023-02-15T15:54:49.172Z,15.50
2023-02-15T15:57:30.923Z,13.43
2023-02-15T16:00:00.616Z,15.97
2023-02-15T16:02:27.803Z,15.30
2023-02-15T16:04:54.878Z,15.87
2023-02-15T16:07:26.703Z,14.93
2023-02-15T16:09:58.122Z,15.93
2023-02-15T16:12:25.838Z,16.13
2023-02-15T16:14:54.309Z,15.60
2023-02-15T16:17:25.007Z,16.33
2023-02-15T16:19:53.768Z,17.63
2023-02-15T16:22:28.803Z,16.40
2023-02-15T16:25:04.384Z,15.97
2023-02-15T16:27:39.518Z,15.23
2023-02-15T16:30:24.399Z,15.10
2023-02-15T16:33:12.964Z,16.63
2023-02-15T16:35:55.922Z,15.13
2023-02-15T16:38:48.484Z,16.00
2023-02-15T16:41:28.093Z,15.30
2023-02-15T16:43:57.823Z,14.77
2023-02-15T16:46:43.805Z,15.87
2023-02-15T16:49:23.812Z,14.67
2023-02-15T16:52:02.408Z,13.80
2023-02-15T16:54:30.935Z,13.30
2023-02-15T16:56:58.336Z,13.93
2023-02-15T16:59:40.738Z,13.40
2023-02-15T17:02:27.396Z,15.30
2023-02-15T17:05:08.272Z,16.67
2023-02-15T17:07:41.017Z,14.87
2023-02-15T17:10:29.289Z,17.00
2023-02-15T17:13:01.280Z,15.57
2023-02-15T17:15:37.051Z,15.97
2023-02-15T17:18:17.512Z,15.30
2023-02-15T17:20:45.655Z,17.00
2023-02-15T17:23:34.384Z,17.13
2023-02-15T17:26:12.057Z,15.00
2023-02-15T17:28:41.863Z,14.73
2023-02-15T17:31:09.413Z,14.53
2023-02-15T17:33:40.158Z,18.33
2023-02-15T17:36:16.924Z,17.30
2023-02-15T17:38:58.702Z,15.10
2023-02-15T17:41:32.213Z,16.33
2023-02-15T17:43:59.041Z,16.25
2023-02-15T17:46:27.351Z,17.50
2023-02-15T17:48:56.923Z,17.27
2023-02-15T17:51:23.986Z,15.13
2023-02-15T17:54:09.164Z,16.30
2023-02-15T17:56:37.665Z,15.63
2023-02-15T17:59:09.488Z,15.80
2023-02-15T18:01:59.520Z,14.37
2023-02-15T18:04:45.573Z,15.13
2023-02-15T18:07:32.649Z,16.33
2023-02-15T18:10:18.178Z,16.63
2023-02-15T18:12:44.927Z,15.63
2023-02-15T18:15:13.134Z,15.10
2023-02-15T18:17:46.020Z,16.67
2023-02-15T18:20:18.507Z,16.67
2023-02-15T18:22:46.519Z,17.47
2023-02-15T18:25:14.918Z,15.70
2023-02-15T18:27:41.748Z,19.17
2023-02-15T18:30:13.742Z,17.70
2023-02-15T18:32:41.364Z,17.33
2023-02-15T18:35:13.975Z,15.77
2023-02-15T18:37:41.963Z,16.40
2023-02-15T18:40:16.633Z,16.30
2023-02-15T18:42:48.135Z,16.70
2023-02-15T18:45:19.775Z,17.23
2023-02-15T18:47:47.528Z,16.23
2023-02-15T18:50:16.348Z,16.50
2023-02-15T18:52:46.093Z,16.53
2023-02-15T18:55:19.782Z,15.40
2023-02-15T18:57:48.043Z,15.80
2023-02-15T19:00:16.788Z,16.70
2023-02-15T19:02:43.710Z,15.53
2023-02-15T19:05:10.574Z,15.77
2023-02-15T19:07:37.891Z,17.40
2023-02-15T19:10:07.899Z,17.30
2023-02-15T19:12:35.355Z,19.30
2023-02-15T19:15:02.219Z,18.90
2023-02-15T19:17:28.984Z,19.60
2023-02-15T19:19:55.728Z,17.77
2023-02-15T19:22:27.363Z,19.90
2023-02-15T19:24:56.943Z,19.47
2023-02-15T19:27:31.364Z,23.00
2023-02-15T19:30:13.541Z,21.57
2023-02-15T19:32:40.419Z,21.07
2023-02-15T19:35:13.043Z,21.97
2023-02-15T19:37:42.573Z,22.60
2023-02-15T19:40:29.086Z,18.80
2023-02-15T19:42:56.637Z,20.43
2023-02-15T19:45:26.091Z,19.20
2023-02-15T19:47:55.149Z,21.57
2023-02-15T19:50:29.516Z,22.73
2023-02-15T19:52:57.607Z,23.37
2023-02-15T19:55:28.258Z,23.03
2023-02-15T19:57:56.969Z,19.87
2023-02-15T20:00:34.213Z,20.93
2023-02-15T20:03:01.519Z,22.20
2023-02-15T20:05:30.483Z,21.93
2023-02-15T20:07:58.445Z,23.77
2023-02-15T20:10:29.307Z,22.93
2023-02-15T20:12:56.948Z,20.93
2023-02-15T20:15:25.040Z,21.37
2023-02-15T20:17:52.525Z,20.40
2023-02-15T20:20:20.542Z,21.60
2023-02-15T20:22:50.016Z,25.00
2023-02-15T20:25:21.728Z,23.20
2023-02-15T20:27:48.964Z,23.87
2023-02-15T20:30:21.680Z,23.80
2023-02-15T20:32:49.409Z,23.20
2023-02-15T20:35:21.790Z,22.33
2023-02-15T20:37:56.406Z,21.70
2023-02-15T20:40:29.851Z,22.00
2023-02-15T20:42:56.665Z,21.30
2023-02-15T20:45:29.277Z,21.00
2023-02-15T20:47:56.456Z,22.27
2023-02-15T20:50:30.031Z,20.00
2023-02-15T20:52:58.635Z,21.33
2023-02-15T20:55:28.963Z,19.20
2023-02-15T20:57:57.004Z,19.30
2023-02-15T21:00:26.869Z,19.70
2023-02-15T21:03:01.678Z,20.97
2023-02-15T21:05:32.851Z,19.73
2023-02-15T21:07:59.947Z,18.90
2023-02-15T21:10:33.044Z,21.20
2023-02-15T21:13:01.027Z,19.47
2023-02-15T21:15:36.017Z,18.53
2023-02-15T21:18:06.520Z,19.00
2023-02-15T21:20:35.395Z,19.27
2023-02-15T21:23:04.726Z,18.93
2023-02-15T21:25:36.524Z,19.33
2023-02-15T21:28:04.633Z,17.87
2023-02-15T21:30:31.690Z,19.47
2023-02-15T21:32:58.439Z,20.30
2023-02-15T21:35:25.361Z,20.40
2023-02-15T21:37:53.305Z,19.97
2023-02-15T21:40:37.962Z,20.90
2023-02-15T21:43:31.572Z,20.97
2023-02-15T21:46:18.324Z,19.20
2023-02-15T21:48:46.420Z,18.87
2023-02-15T21:51:31.868Z,20.50
2023-02-15T21:53:58.583Z,23.47
2023-02-15T21:56:25.425Z,24.23
2023-02-15T21:58:52.151Z,22.07
2023-02-15T22:01:27.486Z,24.80
2023-02-15T22:03:57.570Z,23.70
2023-02-15T22:06:24.572Z,22.97
2023-02-15T22:08:51.422Z,24.70
2023-02-15T22:11:22.467Z,26.10
2023-02-15T22:13:50.456Z,25.93
2023-02-15T22:16:20.074Z,26.60
2023-02-15T22:18:47.317Z,26.40
2023-02-15T22:21:16.597Z,25.37
2023-02-15T22:23:43.516Z,23.27
2023-02-15T22:26:22.826Z,24.30
2023-02-15T22:28:50.066Z,24.03
2023-02-15T22:31:21.006Z,25.10
2023-02-15T22:33:49.808Z,23.90
2023-02-15T22:36:24.859Z,24.07
2023-02-15T22:38:52.297Z,23.37
2023-02-15T22:41:20.239Z,21.33
2023-02-15T22:43:50.280Z,21.93
2023-02-15T22:46:19.885Z,21.30
2023-02-15T22:48:50.174Z,20.77
2023-02-15T22:51:20.912Z,20.83
2023-02-15T22:53:52.243Z,21.43
2023-02-15T22:56:23.229Z,20.00
2023-02-15T22:58:50.514Z,19.53
2023-02-15T23:01:37.999Z,21.03
2023-02-15T23:04:05.004Z,19.33
2023-02-15T23:06:34.622Z,20.33
2023-02-15T23:09:01.765Z,19.00
2023-02-15T23:11:29.056Z,19.73
2023-02-15T23:13:56.056Z,21.43
2023-02-15T23:16:22.813Z,19.53
2023-02-15T23:18:50.057Z,19.30
2023-02-15T23:21:21.429Z,21.23
2023-02-15T23:23:54.540Z,19.80
2023-02-15T23:26:27.745Z,20.40
2023-02-15T23:28:57.343Z,19.27
2023-02-15T23:31:25.207Z,20.23
2023-02-15T23:33:53.136Z,20.03
2023-02-15T23:36:39.447Z,20.67
2023-02-15T23:39:33.736Z,20.70
2023-02-15T23:42:03.517Z,22.13
2023-02-15T23:44:30.851Z,20.57
2023-02-15T23:46:58.231Z,20.80
2023-02-15T23:49:25.255Z,20.60
2023-02-15T23:51:57.116Z,19.43
2023-02-15T23:54:27.009Z,19.20
2023-02-15T23:56:59.154Z,19.47
2023-02-15T23:59:28.677Z,19.60
